Time;durP1;ratioP1;P1;durP2;ratioP2;P2;SDS_P1;SDS_P2;PMS_P1;PMS_P2;Temp;Humidity;BMP_temperature;BMP_pressure;BME280_temperature;BME280_humidity;BME280_pressure;Samples;Min_cycle;Max_cycle;Signal;HPM_P1;HPM_P2
2023/04/10 00:00:07;;;;;;;80.43;57.40;;;;;;;5.98;59.37;101684.34;680571;29;1197;-87
2023/04/10 00:00:29;;;;;;;80.05;57.53;;;;;;;6.10;59.60;101709.22;683404;29;1098;-87
2023/04/10 00:00:55;;;;;;;81.50;57.63;;;;;;;6.02;59.49;101688.91;680558;29;1096;-87
2023/04/10 00:01:16;;;;;;;84.55;58.78;;;;;;;6.01;59.52;101693.97;680559;29;1411;-87
2023/04/10 00:01:37;;;;;;;84.50;59.55;;;;;;;6.02;59.78;101688.03;685892;28;1265;-87
2023/04/10 00:01:58;;;;;;;84.90;59.72;;;;;;;5.96;59.35;101680.75;683331;29;1179;-87
2023/04/10 00:02:19;;;;;;;85.03;60.33;;;;;;;6.06;59.47;101702.06;683507;29;966;-87
2023/04/10 00:02:46;;;;;;;86.35;60.28;;;;;;;6.03;59.55;101692.41;683285;29;1197;-87
2023/04/10 00:03:06;;;;;;;83.43;59.60;;;;;;;6.03;59.33;101698.47;685864;28;1061;-87
2023/04/10 00:03:27;;;;;;;82.70;59.40;;;;;;;5.94;59.43;101677.19;686022;28;819;-87
2023/04/10 00:03:47;;;;;;;81.88;60.13;;;;;;;5.94;59.42;101677.19;683180;29;1288;-87
2023/04/10 00:04:08;;;;;;;82.30;59.63;;;;;;;5.98;59.36;101683.44;685759;28;1175;-87
2023/04/10 00:04:29;;;;;;;79.97;58.47;;;;;;;5.91;59.31;101671.81;683312;29;1214;-87
2023/04/10 00:04:49;;;;;;;79.47;56.67;;;;;;;5.92;59.45;101676.19;685764;28;1197;-86
2023/04/10 00:05:10;;;;;;;77.95;56.63;;;;;;;5.93;59.35;101680.56;683259;28;1268;-87
2023/04/10 00:05:31;;;;;;;77.10;55.37;;;;;;;5.93;59.41;101680.56;678049;29;1169;-87
2023/04/10 00:05:53;;;;;;;80.50;58.15;;;;;;;5.90;59.32;101675.22;680464;29;1298;-87
2023/04/10 00:06:14;;;;;;;86.32;60.05;;;;;;;5.97;59.45;101682.56;680454;29;1276;-87
2023/04/10 00:06:35;;;;;;;90.95;61.63;;;;;;;5.89;59.87;101670.81;680669;29;1189;-87
2023/04/10 00:06:55;;;;;;;91.10;62.20;;;;;;;5.94;59.55;101684.94;680214;29;1157;-87
2023/04/10 00:07:16;;;;;;;87.13;61.50;;;;;;;5.86;59.51;101673.22;683329;28;1237;-87
2023/04/10 00:07:36;;;;;;;86.93;62.00;;;;;;;5.92;59.92;101676.19;683213;29;1031;-87
2023/04/10 00:07:57;;;;;;;84.83;60.43;;;;;;;5.91;59.76;101677.00;684707;28;1265;-87
2023/04/10 00:08:18;;;;;;;85.33;59.97;;;;;;;5.93;59.59;101679.66;684741;28;1215;-87
2023/04/10 00:08:38;;;;;;;82.80;58.70;;;;;;;5.85;59.63;101661.06;680527;29;1187;-87
2023/04/10 00:08:59;;;;;;;85.13;59.57;;;;;;;5.86;59.44;101668.03;685514;28;1156;-86
2023/04/10 00:09:19;;;;;;;84.82;60.03;;;;;;;5.89;59.70;101674.31;683179;29;1280;-87
2023/04/10 00:09:40;;;;;;;84.53;60.22;;;;;;;5.91;59.86;101677.00;685867;28;1322;-87
2023/04/10 00:10:01;;;;;;;83.63;60.08;;;;;;;5.92;59.68;101677.88;685644;28;1205;-87
2023/04/10 00:10:21;;;;;;;86.07;60.17;;;;;;;5.87;59.89;101669.81;688457;28;1265;-88
2023/04/10 00:10:42;;;;;;;84.85;60.15;;;;;;;5.94;59.45;101677.19;683169;29;1475;-87
2023/04/10 00:11:03;;;;;;;88.05;60.95;;;;;;;5.88;59.80;101671.59;682830;29;1252;-87
2023/04/10 00:11:24;;;;;;;89.03;61.70;;;;;;;5.84;59.80;101662.75;683331;28;835;-87
2023/04/10 00:11:45;;;;;;;89.88;61.88;;;;;;;5.95;59.58;101678.97;685609;28;1103;-88
2023/04/10 00:12:06;;;;;;;90.05;62.05;;;;;;;5.88;59.90;101672.53;683111;28;1106;-87
2023/04/10 00:12:26;;;;;;;89.60;62.30;;;;;;;5.92;59.75;101673.59;680405;29;1132;-87
2023/04/10 00:12:47;;;;;;;92.27;63.17;;;;;;;5.89;59.63;101668.22;683084;29;1250;-87
2023/04/10 00:13:07;;;;;;;93.45;64.65;;;;;;;5.84;59.73;101659.28;685638;28;1203;-87
2023/04/10 00:13:29;;;;;;;97.05;65.50;;;;;;;5.85;59.63;101666.25;680462;29;1320;-87
2023/04/10 00:13:49;;;;;;;96.70;66.63;;;;;;;5.93;59.71;101675.38;683040;29;1341;-87
2023/04/10 00:14:10;;;;;;;97.90;66.03;;;;;;;5.90;59.60;101670.03;680494;29;1181;-87
2023/04/10 00:14:31;;;;;;;95.10;66.70;;;;;;;5.91;59.40;101671.81;683128;29;1001;-87
2023/04/10 00:14:51;;;;;;;94.28;65.55;;;;;;;5.97;59.84;101685.16;677783;29;1215;-87
2023/04/10 00:15:12;;;;;;;93.38;65.40;;;;;;;5.89;59.73;101666.53;680378;29;1048;-87
2023/04/10 00:15:32;;;;;;;89.70;62.67;;;;;;;5.86;59.66;101655.09;683303;29;1116;-87
2023/04/10 00:16:24;;;;;;;90.70;63.65;;;;;;;5.97;59.58;101682.56;680435;29;1061;-87
2023/04/10 00:17:03;;;;;;;98.60;67.50;;;;;;;5.87;59.48;101664.66;678853;29;947;-87
2023/04/10 00:17:24;;;;;;;100.67;68.30;;;;;;;5.87;59.73;101669.81;681678;29;1142;-87
2023/04/10 00:17:44;;;;;;;98.13;68.45;;;;;;;5.94;59.40;101677.19;684417;28;996;-87
2023/04/10 00:18:05;;;;;;;96.45;68.55;;;;;;;5.92;59.56;101672.69;685416;28;1351;-87
2023/04/10 00:18:25;;;;;;;96.37;68.47;;;;;;;5.94;59.61;101666.81;685774;28;1153;-87
2023/04/10 00:18:46;;;;;;;97.53;68.15;;;;;;;5.87;59.92;101667.22;685680;28;1227;-87
2023/04/10 00:19:07;;;;;;;97.57;67.67;;;;;;;5.83;59.68;101662.69;683050;29;1091;-87
2023/04/10 00:19:29;;;;;;;98.13;67.60;;;;;;;5.87;59.69;101667.22;680502;29;1360;-87
2023/04/10 00:19:49;;;;;;;95.68;66.43;;;;;;;5.85;59.33;101661.06;685603;28;1190;-87
2023/04/10 00:20:10;;;;;;;94.90;65.90;;;;;;;5.92;59.74;101672.69;691025;28;1105;-87
2023/04/10 00:20:31;;;;;;;93.85;65.57;;;;;;;5.94;59.87;101672.00;683185;29;1339;-87
2023/04/10 00:20:52;;;;;;;95.85;66.82;;;;;;;5.89;59.54;101665.63;680327;29;1086;-87
2023/04/10 00:21:12;;;;;;;96.97;67.63;;;;;;;5.86;59.92;101652.50;680528;29;995;-87
2023/04/10 00:21:33;;;;;;;97.97;68.17;;;;;;;5.85;59.72;101653.31;683122;28;1202;-87
2023/04/10 00:21:54;;;;;;;99.90;68.50;;;;;;;5.91;59.70;101661.47;683157;29;970;-87
2023/04/10 00:22:15;;;;;;;102.60;69.65;;;;;;;5.88;59.62;101667.34;683138;28;1156;-87
2023/04/10 00:22:36;;;;;;;101.97;69.67;;;;;;;5.85;59.63;101651.63;677842;29;1276;-87
2023/04/10 00:22:56;;;;;;;101.25;69.45;;;;;;;5.87;59.89;101654.28;680182;29;1249;-87
2023/04/10 00:23:17;;;;;;;101.20;69.30;;;;;;;5.85;59.62;101668.84;680514;29;1269;-87
2023/04/10 00:23:39;;;;;;;101.77;69.63;;;;;;;5.93;59.40;101665.03;680474;29;1272;-87
2023/04/10 00:24:00;;;;;;;99.22;68.40;;;;;;;5.94;59.63;101677.19;680336;29;1150;-87
2023/04/10 00:24:20;;;;;;;96.32;68.15;;;;;;;5.95;59.63;101676.38;683000;29;1117;-87
2023/04/10 00:24:41;;;;;;;96.18;67.78;;;;;;;5.88;59.78;101656.06;683158;29;1188;-87
2023/04/10 00:25:01;;;;;;;98.60;69.00;;;;;;;5.92;59.44;101663.25;680306;29;1146;-87
2023/04/10 00:25:22;;;;;;;98.95;68.60;;;;;;;5.89;59.65;101652.66;680479;29;1261;-87
2023/04/10 00:25:42;;;;;;;98.03;69.18;;;;;;;5.88;59.83;101669.03;680536;29;871;-87
2023/04/10 00:26:03;;;;;;;98.93;69.73;;;;;;;5.85;59.95;101650.72;677721;29;1100;-87
2023/04/10 00:26:25;;;;;;;102.72;71.90;;;;;;;5.87;59.68;101654.28;680418;29;1190;-87
2023/04/10 00:26:46;;;;;;;106.82;74.00;;;;;;;5.85;59.64;101645.53;680274;29;1215;-87
2023/04/10 00:27:06;;;;;;;108.45;75.28;;;;;;;5.88;59.96;101656.97;677969;29;1319;-87
2023/04/10 00:27:27;;;;;;;108.60;76.13;;;;;;;5.88;59.68;101656.06;680439;29;1113;-87
2023/04/10 00:27:48;;;;;;;111.57;76.80;;;;;;;5.96;59.80;101669.50;683018;29;1333;-87
2023/04/10 00:28:08;;;;;;;109.28;75.80;;;;;;;5.90;59.87;101654.50;683004;29;1169;-87
2023/04/10 00:28:29;;;;;;;106.68;74.20;;;;;;;5.93;59.89;101665.03;683059;29;1264;-87
2023/04/10 00:28:49;;;;;;;99.93;71.17;;;;;;;5.92;59.71;101668.44;682944;29;1470;-87
2023/04/10 00:29:10;;;;;;;103.75;71.40;;;;;;;5.92;59.72;101663.25;685727;28;1076;-87
2023/04/10 00:29:31;;;;;;;103.30;70.32;;;;;;;5.83;59.97;101648.00;683248;28;827;-87
2023/04/10 00:29:51;;;;;;;105.47;72.30;;;;;;;5.87;59.99;101651.69;682901;29;1241;-87
2023/04/10 00:30:12;;;;;;;106.82;73.60;;;;;;;5.92;59.85;101660.66;680411;29;1249;-87
2023/04/10 00:30:32;;;;;;;110.28;75.18;;;;;;;5.83;59.48;101647.13;683170;29;792;-87
2023/04/10 00:30:53;;;;;;;109.37;74.23;;;;;;;5.85;59.92;101649.03;688418;28;1217;-87
2023/04/10 00:31:14;;;;;;;105.28;72.47;;;;;;;5.95;59.72;101666.00;688411;28;1264;-88
2023/04/10 00:31:34;;;;;;;106.50;72.43;;;;;;;5.86;59.76;101649.91;682921;28;1326;-87
2023/04/10 00:31:55;;;;;;;104.55;72.55;;;;;;;5.93;59.87;101662.44;680166;29;1288;-87
2023/04/10 00:32:15;;;;;;;107.73;74.00;;;;;;;5.89;59.63;101652.66;685873;28;1094;-87
2023/04/10 00:32:37;;;;;;;108.20;75.00;;;;;;;5.84;59.67;101646.34;683126;29;1079;-87
2023/04/10 00:32:57;;;;;;;111.75;76.53;;;;;;;5.85;59.66;101651.63;685617;28;1146;-87
2023/04/10 00:33:18;;;;;;;106.07;75.20;;;;;;;5.90;59.86;101659.66;691014;28;1110;-87
2023/04/10 00:33:39;;;;;;;104.10;74.50;;;;;;;5.93;59.82;101665.03;688427;28;1145;-87
2023/04/10 00:33:59;;;;;;;106.40;75.17;;;;;;;5.81;59.54;101643.53;688351;28;1091;-87
2023/04/10 00:34:20;;;;;;;109.68;75.07;;;;;;;5.90;59.93;101654.50;683098;29;1488;-87
2023/04/10 00:34:41;;;;;;;108.60;74.55;;;;;;;5.84;59.64;101649.81;683084;28;1165;-87
2023/04/10 00:35:02;;;;;;;105.15;73.10;;;;;;;5.84;59.59;101649.81;682944;29;1085;-87
2023/04/10 00:35:22;;;;;;;104.40;73.57;;;;;;;5.84;59.83;101646.34;683128;29;1139;-87
2023/04/10 00:35:43;;;;;;;106.17;73.70;;;;;;;5.80;60.03;101641.75;682984;29;1225;-87
2023/04/10 00:36:03;;;;;;;105.18;73.18;;;;;;;5.86;60.07;101653.41;685639;28;1325;-87
2023/04/10 00:36:25;;;;;;;105.28;71.88;;;;;;;5.79;59.62;101646.06;683046;29;1239;-87
2023/04/10 00:36:46;;;;;;;103.28;71.35;;;;;;;5.84;59.95;101649.81;688151;28;1973;-87
2023/04/10 00:37:07;;;;;;;102.57;71.70;;;;;;;5.84;59.92;101649.81;685556;28;1432;-87
2023/04/10 00:37:27;;;;;;;103.80;74.22;;;;;;;5.78;59.91;101635.59;683111;29;1619;-87
2023/04/10 00:37:49;;;;;;;104.93;75.57;;;;;;;5.79;60.04;101639.97;683016;29;958;-87
2023/04/10 00:38:09;;;;;;;109.65;77.97;;;;;;;5.75;60.41;101634.59;683125;29;1110;-87
2023/04/10 00:38:30;;;;;;;113.30;78.27;;;;;;;5.80;60.09;101639.16;680542;28;1196;-88
2023/04/10 00:38:57;;;;;;;114.35;79.40;;;;;;;5.76;60.23;101635.47;679758;29;1231;-87
2023/04/10 00:39:18;;;;;;;112.25;78.60;;;;;;;5.79;60.18;101637.38;685667;28;1339;-87
2023/04/10 00:39:38;;;;;;;107.68;76.38;;;;;;;5.79;60.29;101639.97;683219;29;972;-87
2023/04/10 00:39:59;;;;;;;109.70;77.50;;;;;;;5.81;60.07;101640.94;680359;29;1185;-87
2023/04/10 00:40:20;;;;;;;108.43;75.95;;;;;;;5.74;60.50;101645.78;682275;29;1190;-87
2023/04/10 00:40:41;;;;;;;110.30;76.72;;;;;;;5.77;60.25;101649.34;685861;28;756;-87
2023/04/10 00:41:01;;;;;;;111.45;77.32;;;;;;;5.74;60.17;101642.28;682813;28;1182;-87
2023/04/10 00:41:22;;;;;;;115.90;80.07;;;;;;;5.75;60.21;101639.78;683119;29;1226;-87
2023/04/10 00:41:43;;;;;;;115.40;79.53;;;;;;;5.74;60.21;101631.91;683008;29;1123;-87
2023/04/10 00:42:08;;;;;;;112.93;78.87;;;;;;;5.72;60.20;101634.41;682927;29;1083;-88
2023/04/10 00:42:28;;;;;;;109.53;77.65;;;;;;;5.82;60.77;101642.75;683073;29;1273;-87
2023/04/10 00:42:49;;;;;;;110.75;77.00;;;;;;;5.73;60.12;101630.13;682943;29;1304;-87
2023/04/10 00:43:09;;;;;;;111.53;77.37;;;;;;;5.76;60.39;101645.84;685704;28;1142;-87
2023/04/10 00:43:30;;;;;;;109.13;76.60;;;;;;;5.81;60.22;101659.06;683070;29;1279;-87
2023/04/10 00:43:56;;;;;;;107.20;75.47;;;;;;;5.72;60.23;101644.75;682841;28;1310;-87
2023/04/10 00:44:17;;;;;;;104.50;73.88;;;;;;;5.80;60.58;101652.09;683125;29;1181;-87
2023/04/10 00:44:38;;;;;;;107.63;75.07;;;;;;;5.75;60.38;101644.06;680433;29;1320;-87
2023/04/10 00:44:59;;;;;;;107.57;75.53;;;;;;;5.73;60.71;101633.63;680329;29;1050;-87
2023/04/10 00:45:20;;;;;;;110.35;75.95;;;;;;;5.73;60.66;101640.50;680446;29;1139;-87
2023/04/10 00:45:40;;;;;;;110.82;76.70;;;;;;;5.72;60.40;101634.41;680507;29;950;-87
2023/04/10 00:46:01;;;;;;;110.20;76.30;;;;;;;5.81;60.31;101654.81;680381;29;1104;-87
2023/04/10 00:46:23;;;;;;;108.78;76.22;;;;;;;5.77;60.64;101641.56;680436;29;1341;-87
2023/04/10 00:46:44;;;;;;;105.10;73.80;;;;;;;5.73;60.33;101636.22;685704;28;1425;-87
2023/04/10 00:47:05;;;;;;;104.72;73.95;;;;;;;5.73;60.44;101631.03;688307;28;1016;-87
2023/04/10 00:47:27;;;;;;;106.03;74.10;;;;;;;5.73;60.76;101646.56;688454;28;1284;-87
2023/04/10 00:47:47;;;;;;;111.28;77.82;;;;;;;5.79;60.42;101645.16;685693;28;1066;-87
2023/04/10 00:48:08;;;;;;;115.63;79.10;;;;;;;5.77;60.45;101641.56;682977;29;1265;-87
2023/04/10 00:48:29;;;;;;;118.80;79.55;;;;;;;5.75;60.35;101644.97;685720;28;1243;-87
2023/04/10 00:48:58;;;;;;;117.22;78.55;;;;;;;5.73;60.50;101640.50;682539;28;1185;-87
2023/04/10 00:49:19;;;;;;;110.05;77.15;;;;;;;5.82;60.74;101653.13;682944;29;1304;-88
2023/04/10 00:49:40;;;;;;;110.20;76.82;;;;;;;5.80;60.47;101646.94;686280;28;709;-87
2023/04/10 00:50:01;;;;;;;108.53;76.45;;;;;;;5.72;60.35;101631.81;686022;28;1260;-87
2023/04/10 00:50:22;;;;;;;110.10;76.75;;;;;;;5.82;60.50;101647.94;688924;28;1107;-87
2023/04/10 00:50:42;;;;;;;107.03;76.13;;;;;;;5.77;60.62;101637.25;686404;28;1308;-87
2023/04/10 00:51:04;;;;;;;111.47;78.67;;;;;;;5.84;60.49;101643.75;683694;29;1474;-87
2023/04/10 00:51:25;;;;;;;110.95;79.13;;;;;;;5.73;60.50;101633.63;683983;29;1360;-87
2023/04/10 00:51:46;;;;;;;115.47;81.53;;;;;;;5.78;60.33;101638.19;683879;29;1247;-87
2023/04/10 00:52:07;;;;;;;113.20;80.13;;;;;;;5.73;60.54;101625.84;683829;29;1012;-87
2023/04/10 00:52:29;;;;;;;111.72;80.18;;;;;;;5.80;60.51;101641.75;681131;29;1250;-87
2023/04/10 00:52:50;;;;;;;109.20;78.00;;;;;;;5.74;60.46;101630.22;683717;29;1138;-87
2023/04/10 00:53:10;;;;;;;107.75;76.65;;;;;;;5.72;60.74;101629.22;684125;29;1173;-87
2023/04/10 00:53:31;;;;;;;108.13;76.40;;;;;;;5.81;60.75;101643.53;683812;29;922;-87
2023/04/10 00:53:53;;;;;;;109.25;77.35;;;;;;;5.72;60.58;101639.56;681108;29;1212;-88
2023/04/10 00:54:14;;;;;;;112.72;78.35;;;;;;;5.79;60.58;101634.78;681210;29;1221;-87
2023/04/10 00:54:35;;;;;;;114.03;78.78;;;;;;;5.78;60.80;101630.41;683688;29;1204;-87
2023/04/10 00:54:56;;;;;;;113.88;78.65;;;;;;;5.70;60.62;101617.88;681936;29;958;-87
2023/04/10 00:55:17;;;;;;;110.66;78.00;;;;;;;5.73;60.70;101627.53;685019;28;1010;-87
2023/04/10 00:55:38;;;;;;;113.53;79.40;;;;;;;5.68;60.89;101622.06;684594;28;1122;-87
2023/04/10 00:56:00;;;;;;;113.67;79.50;;;;;;;5.70;60.92;101620.47;683823;29;1043;-87
2023/04/10 00:56:22;;;;;;;115.18;79.10;;;;;;;5.69;60.72;101621.28;680841;29;1235;-87
2023/04/10 00:56:45;;;;;;;114.65;79.82;;;;;;;5.70;60.71;101620.47;678138;28;1915;-87
2023/04/10 00:57:06;;;;;;;115.18;81.45;;;;;;;5.78;60.58;101633.00;683448;28;1370;-87
2023/04/10 00:57:27;;;;;;;112.78;80.70;;;;;;;5.72;61.04;101629.22;686474;28;825;-87
2023/04/10 00:57:47;;;;;;;110.82;78.95;;;;;;;5.68;60.62;101616.91;683415;29;1067;-87
2023/04/10 00:58:13;;;;;;;113.35;79.65;;;;;;;5.74;60.57;101638.00;686008;28;1249;-87
2023/04/10 00:58:33;;;;;;;118.43;81.78;;;;;;;5.70;60.95;101620.47;686068;28;1295;-87
2023/04/10 00:58:54;;;;;;;122.33;82.00;;;;;;;5.68;60.59;101622.06;683293;29;1332;-87
2023/04/10 00:59:15;;;;;;;120.63;81.47;;;;;;;5.75;60.85;101633.69;683341;29;1040;-87
2023/04/10 00:59:36;;;;;;;118.82;81.82;;;;;;;5.68;60.88;101623.75;686174;28;1110;-87
2023/04/10 00:59:57;;;;;;;118.07;83.07;;;;;;;5.77;60.91;101636.38;686202;28;1158;-87
2023/04/10 01:00:18;;;;;;;117.32;83.18;;;;;;;5.71;60.90;101622.25;680860;29;1011;-87
2023/04/10 01:00:40;;;;;;;120.50;83.57;;;;;;;5.70;60.93;101625.66;685727;28;788;-87
2023/04/10 01:01:02;;;;;;;119.50;83.32;;;;;;;5.70;61.04;101629.94;685421;28;958;-87
2023/04/10 01:01:23;;;;;;;118.10;82.30;;;;;;;5.68;61.05;101622.06;682917;29;864;-86
2023/04/10 01:01:44;;;;;;;114.70;81.00;;;;;;;5.66;60.72;101627.94;682782;29;1232;-87
2023/04/10 01:02:04;;;;;;;116.80;80.57;;;;;;;5.64;60.85;101620.09;685702;28;1344;-87
2023/04/10 01:02:25;;;;;;;114.88;80.32;;;;;;;5.66;61.25;101617.59;688569;28;756;-87
2023/04/10 01:02:45;;;;;;;116.50;82.18;;;;;;;5.75;60.68;101632.00;685658;28;1189;-87
2023/04/10 01:03:09;;;;;;;114.80;82.03;;;;;;;5.66;60.98;101620.19;685620;28;1034;-87
2023/04/10 01:03:29;;;;;;;121.00;84.10;;;;;;;5.67;60.61;101625.47;688541;28;926;-87
2023/04/10 01:03:52;;;;;;;122.87;85.40;;;;;;;5.73;60.66;101636.22;685845;28;1006;-87
2023/04/10 01:04:13;;;;;;;122.53;84.88;;;;;;;5.77;60.81;101646.75;685098;28;1271;-86
2023/04/10 01:04:34;;;;;;;123.45;85.57;;;;;;;5.65;61.13;101627.03;683285;29;800;-86
2023/04/10 01:04:55;;;;;;;124.73;85.73;;;;;;;5.68;60.91;101624.66;688416;28;993;-86
2023/04/10 01:05:17;;;;;;;126.20;87.90;;;;;;;5.74;61.12;101637.09;683090;28;1322;-86
2023/04/10 01:05:58;;;;;;;126.47;88.80;;;;;;;5.70;60.94;101627.34;685805;28;1135;-86
2023/04/10 01:06:37;;;;;;;124.50;88.00;;;;;;;5.77;61.06;101641.56;683017;28;1133;-86
2023/04/10 01:07:14;;;;;;;121.45;86.85;;;;;;;5.75;60.94;101639.78;685650;28;1272;-86
2023/04/10 01:08:01;;;;;;;124.43;88.88;;;;;;;5.74;60.95;101643.19;683068;29;1201;-86
2023/04/10 01:08:43;;;;;;;121.32;86.38;;;;;;;5.75;61.17;101639.78;685555;28;992;-86
2023/04/10 01:09:05;;;;;;;121.85;88.15;;;;;;;5.75;61.04;101637.19;685416;28;1413;-86
2023/04/10 01:09:33;;;;;;;124.57;89.35;;;;;;;5.74;61.01;101645.78;685797;28;1289;-86
2023/04/10 01:10:08;;;;;;;126.38;89.20;;;;;;;5.69;61.06;101634.22;682749;29;1233;-86
2023/04/10 01:10:47;;;;;;;127.72;88.15;;;;;;;5.66;60.84;101634.03;685716;28;862;-86
2023/04/10 01:11:25;;;;;;;128.38;88.78;;;;;;;5.67;61.14;101635.81;685544;28;1539;-86
2023/04/10 01:12:14;;;;;;;122.13;86.95;;;;;;;5.74;61.09;101639.69;685593;28;1158;-86
2023/04/10 01:12:44;;;;;;;129.45;89.20;;;;;;;5.73;61.08;101641.41;685721;28;839;-86
2023/04/10 01:13:20;;;;;;;130.38;90.43;;;;;;;5.67;60.80;101630.66;682828;28;1366;-86
2023/04/10 01:13:53;;;;;;;129.25;88.72;;;;;;;5.68;61.24;101635.03;684919;28;884;-86
2023/04/10 01:14:46;;;;;;;122.07;84.72;;;;;;;5.67;61.07;101635.81;683080;28;1192;-86
2023/04/10 01:15:10;;;;;;;120.07;85.78;;;;;;;5.71;61.18;101642.97;685410;28;1133;-86
2023/04/10 01:15:41;;;;;;;118.97;84.45;;;;;;;5.69;61.28;101643.66;683023;28;1383;-86
2023/04/10 01:16:14;;;;;;;116.63;82.05;;;;;;;5.58;61.47;101625.78;682869;28;1215;-86
2023/04/10 01:16:52;;;;;;;119.10;84.30;;;;;;;5.69;61.21;101639.41;682988;29;1962;-86
2023/04/10 01:17:21;;;;;;;120.93;85.60;;;;;;;5.67;61.52;101634.91;680359;29;1006;-86
2023/04/10 01:17:55;;;;;;;121.88;86.80;;;;;;;5.66;61.25;101634.03;685665;28;1118;-86
2023/04/10 01:18:25;;;;;;;120.28;86.60;;;;;;;5.63;61.46;101623.47;682817;29;1044;-86
2023/04/10 01:18:59;;;;;;;118.70;85.22;;;;;;;5.66;61.45;101638.31;683022;29;793;-86
2023/04/10 01:19:29;;;;;;;123.10;86.72;;;;;;;5.67;61.31;101641.00;682879;29;1447;-86
2023/04/10 01:20:01;;;;;;;124.78;88.45;;;;;;;5.55;61.56;101615.25;682774;29;1134;-86
2023/04/10 01:20:28;;;;;;;126.03;89.35;;;;;;;5.57;61.47;101633.44;680298;29;1205;-86
2023/04/10 01:20:50;;;;;;;124.15;87.00;;;;;;;5.53;61.73;101615.94;683093;29;887;-86
2023/04/10 01:21:13;;;;;;;122.38;85.28;;;;;;;5.54;61.41;101620.31;682971;29;1375;-86
2023/04/10 01:21:36;;;;;;;121.40;84.05;;;;;;;5.57;61.46;101628.25;683135;29;847;-86
2023/04/10 01:22:00;;;;;;;119.68;84.25;;;;;;;5.54;61.10;101628.09;685450;28;1419;-86
2023/04/10 01:22:25;;;;;;;121.43;86.10;;;;;;;5.57;61.63;101628.25;685651;28;1347;-86
2023/04/10 01:23:38;;;;;;;122.72;87.32;;;;;;;5.66;61.56;101643.50;685675;28;1176;-86
2023/04/10 01:24:06;;;;;;;122.60;87.57;;;;;;;5.61;61.33;101630.25;685404;28;1059;-86
2023/04/10 01:25:16;;;;;;;127.13;90.28;;;;;;;5.55;61.34;101625.59;688671;28;882;-86
2023/04/10 01:25:42;;;;;;;125.97;86.78;;;;;;;5.53;61.58;101618.53;680235;29;1098;-86
2023/04/10 01:26:09;;;;;;;122.55;84.32;;;;;;;5.51;61.61;101617.56;677484;29;1120;-86
2023/04/10 01:27:08;;;;;;;125.07;86.68;;;;;;;5.64;61.53;101632.16;682912;28;1378;-86
2023/04/10 01:28:07;;;;;;;129.52;90.60;;;;;;;5.64;61.33;101637.34;685633;28;1286;-86
2023/04/10 01:28:42;;;;;;;120.40;87.82;;;;;;;5.55;61.45;101614.34;680191;29;1292;-86
2023/04/10 01:29:13;;;;;;;133.10;92.07;;;;;;;5.55;61.15;101612.66;685444;28;1010;-86
2023/04/10 01:29:35;;;;;;;136.55;93.65;;;;;;;5.57;61.51;101620.50;688209;28;1117;-86
2023/04/10 01:30:00;;;;;;;131.43;91.93;;;;;;;5.52;61.71;101609.84;682795;28;1046;-86
2023/04/10 01:30:22;;;;;;;130.63;91.88;;;;;;;5.56;61.56;101619.63;685490;28;927;-86
2023/04/10 01:30:46;;;;;;;130.90;92.40;;;;;;;5.64;61.31;101634.75;683008;29;1179;-86
2023/04/10 01:31:35;;;;;;;130.23;90.80;;;;;;;5.69;61.64;101638.50;682770;28;1366;-86
2023/04/10 01:32:03;;;;;;;133.05;91.60;;;;;;;5.69;61.70;101634.22;680225;29;905;-86
2023/04/10 01:32:35;;;;;;;131.95;91.13;;;;;;;5.68;61.79;101628.94;687034;28;835;-86
2023/04/10 01:33:09;;;;;;;133.55;92.32;;;;;;;5.62;61.59;101621.69;684700;28;1105;-86
2023/04/10 01:33:49;;;;;;;133.55;92.10;;;;;;;5.65;61.37;101619.28;683114;28;792;-86
2023/04/10 01:34:26;;;;;;;127.85;89.28;;;;;;;5.63;61.57;101623.47;677502;29;1046;-86
2023/04/10 01:34:51;;;;;;;136.13;92.47;;;;;;;5.75;61.73;101628.50;682870;28;1139;-86
2023/04/10 01:35:14;;;;;;;139.55;94.45;;;;;;;5.66;61.84;101613.31;685594;28;1194;-87
2023/04/10 01:35:37;;;;;;;137.07;94.97;;;;;;;5.65;61.91;101614.09;685585;28;1363;-86
2023/04/10 01:36:02;;;;;;;135.10;94.38;;;;;;;5.64;61.72;101612.31;682717;29;1439;-86
2023/04/10 01:36:27;;;;;;;134.40;93.55;;;;;;;5.68;61.61;101615.97;682973;29;831;-86
2023/04/10 01:37:06;;;;;;;131.45;94.25;;;;;;;5.70;61.53;101622.19;680127;29;1926;-86
2023/04/10 01:37:29;;;;;;;131.60;94.03;;;;;;;5.70;61.49;101627.34;680218;29;860;-86
2023/04/10 01:37:52;;;;;;;131.50;92.72;;;;;;;5.67;61.68;101633.25;685528;28;1084;-86
2023/04/10 01:38:16;;;;;;;130.93;92.07;;;;;;;5.65;61.42;101619.28;685485;28;982;-86
2023/04/10 01:38:42;;;;;;;133.02;92.53;;;;;;;5.73;61.27;101641.41;683105;29;882;-86
2023/04/10 01:39:04;;;;;;;130.00;91.72;;;;;;;5.63;61.25;101628.66;682784;29;1048;-86
2023/04/10 01:39:27;;;;;;;132.10;91.68;;;;;;;5.70;61.40;101630.81;682928;29;1368;-86
2023/04/10 01:39:58;;;;;;;134.35;92.28;;;;;;;5.72;61.88;101639.56;680240;29;1017;-86
2023/04/10 01:40:20;;;;;;;133.93;93.10;;;;;;;5.62;61.53;101626.88;680351;29;1161;-86
2023/04/10 01:40:47;;;;;;;136.25;94.50;;;;;;;5.64;61.69;101630.44;680362;29;920;-86
2023/04/10 01:41:09;;;;;;;137.27;96.65;;;;;;;5.68;61.44;101634.13;683429;28;969;-86
2023/04/10 01:41:32;;;;;;;136.35;96.38;;;;;;;5.64;61.43;101627.84;680546;29;1161;-86
2023/04/10 01:41:56;;;;;;;133.43;96.18;;;;;;;5.66;61.43;101634.03;685469;28;1360;-86
2023/04/10 01:42:33;;;;;;;135.00;95.00;;;;;;;5.61;61.89;101625.09;682867;29;921;-86
2023/04/10 01:42:55;;;;;;;133.02;93.50;;;;;;;5.67;61.83;101641.00;680249;29;995;-86
2023/04/10 01:43:25;;;;;;;130.73;94.45;;;;;;;5.63;61.56;101633.84;682883;29;1021;-86
2023/04/10 01:43:49;;;;;;;133.32;95.80;;;;;;;5.63;61.54;101639.00;685524;28;1268;-86
2023/04/10 01:44:45;;;;;;;134.30;95.90;;;;;;;5.71;61.77;101645.56;685372;28;996;-86
2023/04/10 01:45:47;;;;;;;137.50;95.80;;;;;;;5.70;61.75;101638.59;688194;28;1213;-86
2023/04/10 01:46:11;;;;;;;130.23;94.10;;;;;;;5.67;61.95;101635.81;688090;28;1082;-86
2023/04/10 01:46:43;;;;;;;132.88;95.18;;;;;;;5.63;61.69;101627.78;682888;29;1380;-86
2023/04/10 01:47:06;;;;;;;132.05;93.38;;;;;;;5.65;61.60;101628.75;682790;29;1026;-86
2023/04/10 01:47:26;;;;;;;129.80;91.88;;;;;;;5.59;61.91;101621.50;683026;28;809;-86
2023/04/10 01:47:47;;;;;;;132.02;92.75;;;;;;;5.60;61.64;101629.34;685628;28;1057;-86
2023/04/10 01:48:09;;;;;;;131.55;92.47;;;;;;;5.60;61.68;101629.34;688065;28;1201;-86
2023/04/10 01:48:30;;;;;;;132.57;94.18;;;;;;;5.69;61.85;101635.91;682899;29;1256;-86
2023/04/10 01:48:52;;;;;;;128.68;92.40;;;;;;;5.60;61.83;101620.72;688202;28;1134;-86
2023/04/10 01:49:14;;;;;;;127.68;91.90;;;;;;;5.65;61.60;101634.81;685593;28;966;-86
2023/04/10 01:49:41;;;;;;;131.65;93.90;;;;;;;5.59;61.87;101618.91;682861;29;1352;-86
2023/04/10 01:50:03;;;;;;;136.75;96.53;;;;;;;5.63;61.88;101620.00;685374;28;1105;-86
2023/04/10 01:50:27;;;;;;;137.88;96.63;;;;;;;5.61;61.67;101622.50;685498;28;1454;-86
2023/04/10 01:50:49;;;;;;;135.82;95.80;;;;;;;5.60;62.06;101612.94;688174;28;1353;-86
2023/04/10 01:51:11;;;;;;;132.30;94.45;;;;;;;5.53;61.72;101606.47;688100;28;1180;-86
2023/04/10 01:51:33;;;;;;;130.73;93.05;;;;;;;5.60;61.68;101607.75;685730;28;894;-86
2023/04/10 01:51:58;;;;;;;132.23;93.25;;;;;;;5.61;61.66;101619.91;680023;29;1407;-86
2023/04/10 01:52:22;;;;;;;133.05;94.43;;;;;;;5.61;61.83;101622.50;680271;29;1073;-87
2023/04/10 01:52:51;;;;;;;132.80;94.85;;;;;;;5.65;61.90;101627.03;680178;29;1041;-86
2023/04/10 01:53:15;;;;;;;135.75;95.13;;;;;;;5.53;61.90;101601.28;682950;28;1015;-86
2023/04/10 01:53:37;;;;;;;134.13;94.15;;;;;;;5.54;62.11;101597.94;682958;29;1280;-86
2023/04/10 01:54:00;;;;;;;130.43;92.75;;;;;;;5.63;61.87;101610.53;679972;29;1198;-86
2023/04/10 01:54:21;;;;;;;126.05;90.47;;;;;;;5.63;62.03;101614.81;682904;28;1331;-86
2023/04/10 01:54:44;;;;;;;127.77;90.00;;;;;;;5.60;61.78;101607.75;685496;28;1293;-86